createdAt,value
2018-07-11T00:02:03.084Z,4.77
2018-07-11T00:04:30.232Z,4.67
2018-07-11T00:06:57.368Z,6.27
2018-07-11T00:09:24.504Z,4.90
2018-07-11T00:11:51.644Z,4.53
2018-07-11T00:14:18.788Z,4.93
2018-07-11T00:17:17.973Z,4.97
2018-07-11T00:19:45.128Z,6.47
2018-07-11T00:22:12.280Z,4.60
2018-07-11T00:24:39.395Z,5.00
2018-07-11T00:27:06.800Z,9.97
2018-07-11T00:29:34.033Z,6.07
2018-07-11T00:32:01.216Z,6.27
2018-07-11T00:34:28.365Z,5.63
2018-07-11T00:36:55.512Z,4.80
2018-07-11T00:39:22.636Z,4.83
2018-07-11T00:41:49.788Z,5.03
2018-07-11T00:44:16.937Z,5.30
2018-07-11T00:46:44.092Z,5.40
2018-07-11T00:49:11.240Z,5.00
2018-07-11T00:51:38.420Z,5.00
2018-07-11T00:54:05.899Z,5.07
2018-07-11T00:56:33.068Z,5.03
2018-07-11T00:59:05.316Z,5.03
2018-07-11T01:01:33.119Z,5.40
2018-07-11T01:04:00.292Z,6.20
2018-07-11T01:06:27.441Z,6.53
2018-07-11T01:08:57.554Z,11.17
2018-07-11T01:11:24.984Z,6.43
2018-07-11T01:13:52.321Z,6.33
2018-07-11T01:16:19.528Z,5.90
2018-07-11T01:18:54.867Z,7.47
2018-07-11T01:21:22.004Z,15.47
2018-07-11T01:23:49.131Z,7.43
2018-07-11T01:26:16.680Z,5.20
2018-07-11T01:28:43.804Z,5.93
2018-07-11T01:31:10.932Z,6.30
2018-07-11T01:33:38.080Z,5.63
2018-07-11T01:36:05.199Z,6.03
2018-07-11T01:38:32.313Z,5.87
2018-07-11T01:40:59.497Z,6.43
2018-07-11T01:43:26.594Z,6.20
2018-07-11T01:45:53.720Z,6.90
2018-07-11T01:48:20.867Z,6.50
2018-07-11T01:50:47.992Z,6.70
2018-07-11T01:53:15.148Z,6.33
2018-07-11T01:55:42.297Z,6.43
2018-07-11T01:58:09.440Z,7.20
2018-07-11T02:00:36.579Z,7.57
2018-07-11T02:03:03.729Z,7.20
2018-07-11T02:05:30.891Z,7.47
2018-07-11T02:07:58.048Z,7.17
2018-07-11T02:10:25.267Z,7.47
2018-07-11T02:12:52.369Z,8.40
2018-07-11T02:15:19.536Z,8.40
2018-07-11T02:17:46.684Z,8.73
2018-07-11T02:20:16.504Z,8.37
2018-07-11T02:22:45.035Z,8.43
2018-07-11T02:25:12.982Z,8.80
2018-07-11T02:27:40.132Z,9.33
2018-07-11T02:30:10.810Z,12.60
2018-07-11T02:32:38.034Z,8.53
2018-07-11T02:35:05.188Z,7.43
2018-07-11T02:37:32.325Z,8.10
2018-07-11T02:39:59.452Z,7.87
2018-07-11T02:42:26.592Z,11.47
2018-07-11T02:44:53.744Z,8.53
2018-07-11T02:47:26.608Z,8.50
2018-07-11T02:49:53.764Z,8.27
2018-07-11T02:52:20.899Z,7.87
2018-07-11T02:54:48.024Z,8.43
2018-07-11T02:57:15.217Z,10.37
2018-07-11T02:59:42.456Z,10.20
2018-07-11T03:02:09.603Z,10.17
2018-07-11T03:04:37.079Z,10.10
2018-07-11T03:07:04.744Z,10.97
2018-07-11T03:09:31.859Z,10.10
2018-07-11T03:11:58.983Z,10.53
2018-07-11T03:14:26.144Z,12.10
2018-07-11T03:16:53.325Z,13.63
2018-07-11T03:19:20.452Z,10.43
2018-07-11T03:21:47.636Z,9.90
2018-07-11T03:24:15.933Z,10.50
2018-07-11T03:26:43.081Z,10.20
2018-07-11T03:29:10.343Z,11.00
2018-07-11T03:31:37.481Z,17.63
2018-07-11T03:34:04.627Z,13.10
2018-07-11T03:36:31.756Z,12.80
2018-07-11T03:38:58.900Z,14.97
2018-07-11T03:41:26.053Z,18.23
2018-07-11T03:43:53.196Z,14.30
2018-07-11T03:46:20.413Z,18.83
2018-07-11T03:48:47.597Z,13.63
2018-07-11T03:51:14.753Z,14.93
2018-07-11T03:53:41.930Z,14.23
2018-07-11T03:56:09.060Z,11.67
2018-07-11T03:58:36.179Z,18.73
2018-07-11T04:01:03.312Z,10.40
2018-07-11T04:03:30.472Z,19.47
2018-07-11T04:05:57.577Z,21.30
2018-07-11T04:08:24.704Z,14.30
2018-07-11T04:10:51.812Z,14.83
2018-07-11T04:13:19.283Z,22.20
2018-07-11T04:15:46.418Z,18.33
2018-07-11T04:18:17.820Z,31.10
2018-07-11T04:20:44.928Z,20.07
2018-07-11T04:23:12.045Z,23.20
2018-07-11T04:25:39.188Z,24.03
2018-07-11T04:28:06.341Z,17.40
2018-07-11T04:30:33.494Z,22.30
2018-07-11T04:33:00.665Z,24.00
2018-07-11T04:35:27.808Z,16.17
2018-07-11T04:37:55.005Z,14.53
2018-07-11T04:40:22.154Z,21.60
2018-07-11T04:42:49.312Z,13.20
2018-07-11T04:45:16.444Z,15.87
2018-07-11T04:47:43.609Z,15.43
2018-07-11T04:50:10.756Z,16.27
2018-07-11T04:52:37.987Z,28.77
2018-07-11T04:55:05.369Z,20.60
2018-07-11T04:57:32.543Z,19.90
2018-07-11T04:59:59.660Z,14.17
2018-07-11T05:02:26.789Z,13.87
2018-07-11T05:04:53.923Z,35.93
2018-07-11T05:07:21.041Z,15.93
2018-07-11T05:09:48.175Z,21.23
2018-07-11T05:12:15.292Z,14.30
2018-07-11T05:14:42.421Z,15.37
2018-07-11T05:17:09.540Z,14.50
2018-07-11T05:19:36.693Z,35.70
2018-07-11T05:22:03.833Z,15.57
2018-07-11T05:24:30.946Z,18.17
2018-07-11T05:26:58.119Z,19.40
2018-07-11T05:29:25.264Z,26.03
2018-07-11T05:31:52.447Z,53.87
2018-07-11T05:34:19.572Z,25.33
2018-07-11T05:36:46.682Z,11.70
2018-07-11T05:39:13.824Z,11.50
2018-07-11T05:41:40.952Z,30.63
2018-07-11T05:44:08.077Z,29.20
2018-07-11T05:46:35.208Z,10.83
2018-07-11T05:49:02.328Z,13.57
2018-07-11T05:51:29.444Z,16.67
2018-07-11T05:53:56.564Z,25.83
2018-07-11T05:56:23.744Z,25.43
2018-07-11T05:58:50.945Z,12.40
2018-07-11T06:01:18.101Z,14.10
2018-07-11T06:03:45.225Z,10.73
2018-07-11T06:06:12.353Z,58.93
2018-07-11T06:08:39.476Z,11.43
2018-07-11T06:11:15.686Z,23.37
2018-07-11T06:13:42.899Z,42.23
2018-07-11T06:16:09.948Z,10.87
2018-07-11T06:18:37.115Z,11.10
2018-07-11T06:21:04.252Z,18.67
2018-07-11T06:23:31.383Z,23.43
2018-07-11T06:25:58.531Z,11.00
2018-07-11T06:28:25.668Z,17.57
2018-07-11T06:30:52.809Z,16.10
2018-07-11T06:33:19.943Z,19.33
2018-07-11T06:35:47.116Z,11.67
2018-07-11T06:38:14.235Z,11.87
2018-07-11T06:40:41.364Z,14.40
2018-07-11T06:43:08.486Z,11.50
2018-07-11T06:45:35.625Z,25.50
2018-07-11T06:48:02.855Z,13.07
2018-07-11T06:50:29.892Z,12.67
2018-07-11T06:52:56.999Z,11.50
2018-07-11T06:55:24.192Z,10.77
2018-07-11T06:57:51.330Z,11.30
2018-07-11T07:00:18.444Z,30.90
2018-07-11T07:02:45.591Z,9.83
2018-07-11T07:05:12.704Z,10.90
2018-07-11T07:07:39.828Z,17.07
2018-07-11T07:10:06.969Z,10.37
2018-07-11T07:12:34.109Z,10.77
2018-07-11T07:15:01.264Z,15.37
2018-07-11T07:17:28.393Z,66.37
2018-07-11T07:19:55.510Z,39.50
2018-07-11T07:22:22.685Z,15.10
2018-07-11T07:24:49.780Z,9.43
2018-07-11T07:27:16.996Z,21.93
2018-07-11T07:29:44.147Z,9.50
2018-07-11T07:32:11.308Z,8.80
2018-07-11T07:34:38.460Z,11.03
2018-07-11T07:37:05.579Z,21.00
2018-07-11T07:39:32.710Z,196.40
2018-07-11T07:41:59.835Z,12.33
2018-07-11T07:44:26.993Z,73.63
2018-07-11T07:46:59.517Z,22.43
2018-07-11T07:49:27.047Z,11.97
2018-07-11T07:51:54.237Z,24.87
2018-07-11T07:54:21.409Z,64.63
2018-07-11T07:56:48.559Z,94.70
2018-07-11T07:59:15.726Z,13.13
2018-07-11T08:01:42.876Z,11.07
2018-07-11T08:04:10.750Z,84.57
2018-07-11T08:06:37.892Z,12.07
2018-07-11T08:09:05.114Z,7.97
2018-07-11T08:11:32.264Z,26.10
2018-07-11T08:13:59.392Z,44.37
2018-07-11T08:16:26.582Z,14.27
2018-07-11T08:18:53.739Z,21.43
2018-07-11T08:21:20.888Z,31.27
2018-07-11T08:23:59.600Z,138.00
2018-07-11T08:26:38.260Z,33.90
2018-07-11T08:30:22.375Z,52.47
2018-07-11T08:32:59.792Z,130.63
2018-07-11T08:36:40.568Z,20.20
2018-07-11T08:39:23.896Z,5.63
2018-07-11T08:42:01.088Z,14.97
2018-07-11T08:44:42.165Z,46.73
2018-07-11T08:47:17.832Z,65.23
2018-07-11T08:50:00.208Z,17.63
2018-07-11T08:54:39.580Z,78.47
2018-07-11T08:57:17.080Z,4.83
2018-07-11T09:02:02.108Z,29.73
2018-07-11T09:04:47.444Z,10.27
2018-07-11T09:07:28.620Z,49.00
2018-07-11T09:10:11.456Z,5.77
2018-07-11T09:15:54.824Z,53.00
2018-07-11T09:20:35.925Z,15.37
2018-07-11T09:23:14.544Z,75.13
2018-07-11T09:25:41.669Z,51.50
2018-07-11T09:28:08.832Z,25.60
2018-07-11T09:30:36.035Z,72.33
2018-07-11T09:33:03.157Z,7.30
2018-07-11T09:35:30.301Z,166.93
2018-07-11T09:37:57.458Z,10.67
2018-07-11T09:40:24.605Z,126.00
2018-07-11T09:42:51.804Z,54.77
2018-07-11T09:45:18.990Z,64.77
2018-07-11T09:47:46.157Z,49.63
2018-07-11T09:50:13.617Z,8.77
2018-07-11T09:52:40.756Z,109.77
2018-07-11T09:55:07.981Z,24.63
2018-07-11T09:57:36.785Z,59.73
2018-07-11T10:00:03.951Z,127.80
2018-07-11T10:02:31.125Z,66.20
2018-07-11T10:04:58.387Z,439.07
2018-07-11T10:07:25.524Z,226.43
2018-07-11T10:09:52.753Z,794.40
2018-07-11T10:12:19.892Z,122.53
2018-07-11T10:14:47.032Z,355.17
2018-07-11T10:17:14.166Z,414.93
2018-07-11T10:19:41.316Z,261.60
2018-07-11T10:22:08.476Z,476.87
2018-07-11T10:24:35.634Z,999.90
2018-07-11T10:27:02.845Z,999.90
2018-07-11T10:29:29.980Z,999.90
2018-07-11T10:31:57.112Z,999.90
2018-07-11T10:34:24.255Z,999.90
2018-07-11T10:36:51.394Z,999.90
2018-07-11T10:39:18.545Z,999.90
2018-07-11T10:41:45.671Z,999.90
2018-07-11T10:44:12.812Z,999.90
2018-07-11T10:46:39.945Z,999.90
2018-07-11T10:49:07.125Z,999.90
2018-07-11T10:51:34.286Z,999.90
2018-07-11T10:54:01.459Z,999.90
2018-07-11T10:56:28.600Z,999.90
2018-07-11T10:58:55.792Z,999.90
2018-07-11T11:01:22.966Z,999.90
2018-07-11T11:03:50.072Z,999.90
2018-07-11T11:06:17.185Z,999.90
2018-07-11T11:08:44.320Z,999.90
2018-07-11T11:11:11.485Z,999.90
2018-07-11T11:13:38.607Z,999.90
2018-07-11T11:16:05.753Z,999.90
2018-07-11T11:18:32.892Z,999.90
2018-07-11T11:21:00.059Z,999.90
2018-07-11T11:23:27.204Z,999.90
2018-07-11T11:25:54.345Z,999.90
2018-07-11T11:28:21.496Z,999.90
2018-07-11T11:30:48.637Z,999.90
2018-07-11T11:33:15.791Z,999.90
2018-07-11T11:35:42.943Z,999.90
2018-07-11T11:38:10.384Z,999.90
2018-07-11T11:40:37.576Z,999.90
2018-07-11T11:43:04.745Z,999.90
2018-07-11T11:45:31.893Z,999.90
2018-07-11T11:48:00.689Z,999.90
2018-07-11T11:50:28.537Z,999.90
2018-07-11T11:52:55.762Z,999.90
2018-07-11T11:55:22.980Z,999.90
2018-07-11T11:57:50.855Z,999.90
2018-07-11T12:00:18.045Z,999.90
2018-07-11T12:02:45.252Z,999.90
2018-07-11T12:05:12.376Z,999.90
2018-07-11T12:07:39.633Z,999.90
2018-07-11T12:10:06.785Z,998.80
2018-07-11T12:12:33.917Z,999.90
2018-07-11T12:15:01.060Z,999.90
2018-07-11T12:17:28.209Z,999.37
2018-07-11T12:19:55.400Z,970.97
2018-07-11T12:22:23.997Z,660.20
2018-07-11T12:24:51.660Z,975.57
2018-07-11T12:27:19.127Z,999.90
2018-07-11T12:29:46.600Z,999.90
2018-07-11T12:32:13.859Z,999.90
2018-07-11T12:34:41.048Z,948.50
2018-07-11T12:37:08.208Z,999.90
2018-07-11T12:39:35.360Z,986.17
2018-07-11T12:42:02.548Z,999.90
2018-07-11T12:44:29.747Z,999.90
2018-07-11T12:46:56.976Z,999.90
2018-07-11T12:49:24.151Z,999.90
2018-07-11T12:51:51.302Z,999.90
2018-07-11T12:54:18.458Z,999.90
2018-07-11T12:56:45.616Z,929.77
2018-07-11T12:59:12.776Z,966.70
2018-07-11T13:01:39.922Z,848.83
2018-07-11T13:04:07.068Z,999.90
2018-07-11T13:06:35.439Z,858.70
2018-07-11T13:09:02.752Z,885.90
2018-07-11T13:11:29.904Z,974.87
2018-07-11T13:13:57.049Z,876.10
2018-07-11T13:16:24.225Z,999.90
2018-07-11T13:18:51.344Z,994.20
2018-07-11T13:21:18.522Z,939.20
2018-07-11T13:23:45.648Z,867.60
2018-07-11T13:26:12.824Z,826.37
2018-07-11T13:28:39.976Z,934.87
2018-07-11T13:31:07.701Z,999.90
2018-07-11T13:33:34.872Z,999.90
2018-07-11T13:36:02.066Z,993.43
2018-07-11T13:38:29.240Z,984.97
2018-07-11T13:40:56.372Z,999.90
2018-07-11T13:43:23.896Z,999.90
2018-07-11T13:45:51.078Z,999.90
2018-07-11T13:48:18.221Z,999.90
2018-07-11T13:50:45.352Z,999.90
2018-07-11T13:53:12.492Z,999.90
2018-07-11T13:55:39.699Z,999.90
2018-07-11T13:58:06.873Z,999.90
2018-07-11T14:00:34.024Z,993.00
2018-07-11T14:03:01.591Z,854.60
2018-07-11T14:05:28.681Z,874.17
2018-07-11T14:07:55.836Z,848.73
2018-07-11T14:10:22.996Z,999.90
2018-07-11T14:12:50.160Z,920.50
2018-07-11T14:15:17.636Z,963.43
2018-07-11T14:17:44.812Z,734.27
2018-07-11T14:20:12.088Z,832.57
2018-07-11T14:22:39.234Z,999.20
2018-07-11T14:25:06.436Z,808.53
2018-07-11T14:27:41.694Z,941.50
2018-07-11T14:30:09.149Z,999.90
2018-07-11T14:32:37.078Z,980.67
2018-07-11T14:35:04.232Z,960.83
2018-07-11T14:37:31.385Z,769.07
2018-07-11T14:39:58.536Z,999.90
2018-07-11T14:42:26.292Z,749.83
2018-07-11T14:44:54.036Z,907.50
2018-07-11T14:47:26.788Z,936.57
2018-07-11T14:49:53.971Z,913.23
2018-07-11T14:52:21.122Z,958.10
2018-07-11T14:54:48.240Z,848.50
2018-07-11T14:57:15.395Z,554.80
2018-07-11T14:59:42.567Z,969.00
2018-07-11T15:02:09.692Z,945.77
2018-07-11T15:04:36.840Z,795.27
2018-07-11T15:07:04.374Z,922.60
2018-07-11T15:09:31.512Z,985.03
2018-07-11T15:11:58.710Z,896.33
2018-07-11T15:14:25.884Z,987.93
2018-07-11T15:16:53.102Z,972.17
2018-07-11T15:19:20.220Z,929.47
2018-07-11T15:21:47.384Z,917.03
2018-07-11T15:24:14.516Z,974.77
2018-07-11T15:26:41.656Z,868.93
2018-07-11T15:29:08.785Z,655.47
2018-07-11T15:31:36.436Z,776.30
2018-07-11T15:34:03.581Z,936.90
2018-07-11T15:36:30.752Z,722.50
2018-07-11T15:38:57.928Z,973.57
2018-07-11T15:41:25.132Z,999.90
2018-07-11T15:43:52.304Z,999.90
2018-07-11T15:46:20.416Z,999.90
2018-07-11T15:48:48.288Z,999.90
2018-07-11T15:51:15.432Z,778.97
2018-07-11T15:53:42.852Z,276.70
2018-07-11T15:56:10.041Z,470.50
2018-07-11T15:58:37.828Z,999.90
2018-07-11T16:01:08.621Z,999.90
2018-07-11T16:03:38.456Z,999.90
2018-07-11T16:06:06.912Z,553.77
2018-07-11T16:08:34.057Z,518.33
2018-07-11T16:11:02.910Z,315.43
2018-07-11T16:13:30.021Z,144.17
2018-07-11T16:15:57.185Z,842.17
2018-07-11T16:18:24.339Z,156.73
2018-07-11T16:20:51.577Z,92.30
2018-07-11T16:23:18.744Z,504.93
2018-07-11T16:25:45.888Z,169.73
2018-07-11T16:28:13.532Z,212.00
2018-07-11T16:30:40.686Z,133.03
2018-07-11T16:33:07.808Z,394.03
2018-07-11T16:35:34.968Z,168.23
2018-07-11T16:38:02.342Z,188.80
2018-07-11T16:40:30.364Z,428.70
2018-07-11T16:42:57.559Z,880.20
2018-07-11T16:45:25.204Z,332.10
2018-07-11T16:47:52.348Z,498.43
2018-07-11T16:50:20.188Z,513.17
2018-07-11T16:52:47.400Z,370.57
2018-07-11T16:55:14.556Z,334.50
2018-07-11T16:57:52.500Z,384.57
2018-07-11T17:00:29.112Z,139.53
2018-07-11T17:03:11.252Z,279.07
2018-07-11T17:05:47.819Z,181.17
2018-07-11T17:08:16.513Z,561.73
2018-07-11T17:10:43.668Z,227.87
2018-07-11T17:13:13.449Z,828.60
2018-07-11T17:15:44.696Z,134.10
2018-07-11T17:18:16.340Z,64.63
2018-07-11T17:20:43.484Z,181.63
2018-07-11T17:23:10.623Z,111.77
2018-07-11T17:25:38.929Z,520.77
2018-07-11T17:28:06.078Z,469.27
2018-07-11T17:30:35.216Z,180.93
2018-07-11T17:33:03.744Z,126.93
2018-07-11T17:35:30.925Z,91.93
2018-07-11T17:38:01.137Z,349.97
2018-07-11T17:40:28.595Z,991.60
2018-07-11T17:42:55.772Z,999.90
2018-07-11T17:45:22.932Z,999.90
2018-07-11T17:47:57.121Z,911.37
2018-07-11T17:50:27.451Z,999.90
2018-07-11T17:53:03.496Z,999.90
2018-07-11T17:55:32.784Z,999.90
2018-07-11T17:58:03.060Z,999.90
2018-07-11T18:00:49.368Z,999.90
2018-07-11T18:04:42.929Z,999.90
2018-07-11T18:07:11.951Z,999.90
2018-07-11T18:09:55.968Z,999.90
2018-07-11T18:12:23.887Z,999.90
2018-07-11T18:15:34.176Z,999.90
2018-07-11T18:18:12.969Z,979.33
2018-07-11T18:21:01.247Z,999.90
2018-07-11T18:23:36.564Z,999.90
2018-07-11T18:26:15.706Z,995.03
2018-07-11T18:28:55.080Z,978.07
2018-07-11T18:31:38.172Z,929.87
2018-07-11T18:34:15.664Z,899.63
2018-07-11T18:36:55.011Z,898.93
2018-07-11T18:39:26.899Z,935.67
2018-07-11T18:42:19.848Z,880.37
2018-07-11T18:44:55.745Z,823.90
2018-07-11T18:47:36.816Z,873.17
2018-07-11T18:50:13.082Z,949.10
2018-07-11T18:52:46.736Z,645.13
2018-07-11T18:55:18.845Z,635.67
2018-07-11T18:59:54.986Z,497.07
2018-07-11T19:04:38.101Z,112.87
2018-07-11T19:07:13.991Z,60.40
2018-07-11T19:09:43.390Z,29.83
2018-07-11T19:12:19.868Z,28.50
2018-07-11T19:14:53.461Z,30.57
2018-07-11T19:17:30.121Z,27.37
2018-07-11T19:20:07.114Z,60.90
2018-07-11T19:22:42.164Z,25.93
2018-07-11T19:27:29.940Z,51.33
2018-07-11T19:30:03.935Z,51.73
2018-07-11T19:34:43.516Z,29.83
2018-07-11T19:39:26.288Z,13.93
2018-07-11T19:44:12.468Z,26.27
2018-07-11T19:47:19.841Z,24.90
2018-07-11T19:49:57.669Z,70.23
2018-07-11T19:52:47.376Z,10.93
2018-07-11T19:55:23.264Z,9.30
2018-07-11T19:57:50.461Z,6.53
2018-07-11T20:00:17.619Z,6.83
2018-07-11T20:02:44.748Z,46.97
2018-07-11T20:05:11.916Z,9.50
2018-07-11T20:07:39.041Z,7.00
2018-07-11T20:10:06.201Z,6.23
2018-07-11T20:12:33.366Z,9.90
2018-07-11T20:15:00.595Z,24.53
2018-07-11T20:17:27.732Z,7.13
2018-07-11T20:19:54.886Z,14.03
2018-07-11T20:22:22.060Z,8.70
2018-07-11T20:24:49.208Z,9.43
2018-07-11T20:27:16.424Z,30.70
2018-07-11T20:29:43.592Z,8.00
2018-07-11T20:32:10.748Z,12.10
2018-07-11T20:34:37.883Z,6.70
2018-07-11T20:37:05.125Z,11.90
2018-07-11T20:39:32.325Z,6.03
2018-07-11T20:41:59.468Z,9.73
2018-07-11T20:44:26.605Z,53.07
2018-07-11T20:46:53.779Z,13.97
2018-07-11T20:49:26.588Z,14.77
2018-07-11T20:51:53.712Z,11.07
2018-07-11T20:54:20.855Z,20.57
2018-07-11T20:56:47.976Z,13.27
2018-07-11T20:59:26.587Z,16.63
2018-07-11T21:02:07.828Z,6.47
2018-07-11T21:04:48.976Z,7.00
2018-07-11T21:07:42.533Z,7.97
2018-07-11T21:10:20.873Z,11.97
2018-07-11T21:14:03.031Z,11.90
2018-07-11T21:16:41.729Z,14.57
2018-07-11T21:19:10.069Z,6.33
2018-07-11T21:21:38.303Z,9.17
2018-07-11T21:24:06.585Z,6.00
2018-07-11T21:26:34.056Z,7.17
2018-07-11T21:29:01.214Z,12.43
2018-07-11T21:31:28.376Z,18.30
2018-07-11T21:33:55.520Z,6.90
2018-07-11T21:36:22.668Z,16.50
2018-07-11T21:38:50.099Z,9.97
2018-07-11T21:41:17.268Z,12.23
2018-07-11T21:43:44.432Z,15.17
2018-07-11T21:46:12.227Z,9.63
2018-07-11T21:48:39.400Z,21.03
2018-07-11T21:51:06.588Z,34.37
2018-07-11T21:53:33.733Z,47.40
2018-07-11T21:56:00.856Z,141.87
2018-07-11T21:58:28.173Z,7.60
2018-07-11T22:01:01.160Z,9.23
2018-07-11T22:03:28.308Z,12.67
2018-07-11T22:05:55.608Z,12.57
2018-07-11T22:08:22.755Z,9.40
2018-07-11T22:10:49.900Z,9.87
2018-07-11T22:13:17.018Z,15.03
2018-07-11T22:15:44.140Z,8.03
2018-07-11T22:18:22.943Z,52.37
2018-07-11T22:20:49.184Z,7.83
2018-07-11T22:23:15.435Z,8.77
2018-07-11T22:25:41.701Z,9.33
2018-07-11T22:28:07.945Z,12.53
2018-07-11T22:30:34.227Z,13.00
2018-07-11T22:33:00.488Z,7.97
2018-07-11T22:35:26.724Z,15.10
2018-07-11T22:37:52.971Z,7.63
2018-07-11T22:40:19.245Z,10.33
2018-07-11T22:42:45.525Z,24.30
2018-07-11T22:45:11.752Z,9.20
2018-07-11T22:47:38.005Z,7.90
2018-07-11T22:50:04.726Z,10.40
2018-07-11T22:52:31.835Z,8.70
2018-07-11T22:54:58.045Z,8.50
2018-07-11T22:57:24.301Z,9.70
2018-07-11T22:59:50.875Z,27.83
2018-07-11T23:02:17.520Z,9.30
2018-07-11T23:04:43.769Z,9.33
2018-07-11T23:07:10.016Z,9.67
2018-07-11T23:09:36.261Z,9.43
2018-07-11T23:12:03.701Z,9.80
2018-07-11T23:14:30.708Z,9.73
2018-07-11T23:16:56.980Z,9.80
2018-07-11T23:19:23.406Z,9.97
2018-07-11T23:21:49.704Z,9.60
2018-07-11T23:24:15.958Z,9.97
2018-07-11T23:26:42.213Z,9.57
2018-07-11T23:29:08.460Z,9.53
2018-07-11T23:31:34.708Z,10.47
2018-07-11T23:34:00.957Z,9.90
2018-07-11T23:36:27.200Z,10.87
2018-07-11T23:38:53.452Z,12.23
2018-07-11T23:41:19.733Z,10.37
2018-07-11T23:43:46.000Z,10.30
2018-07-11T23:46:12.348Z,10.97
2018-07-11T23:48:38.659Z,11.60
2018-07-11T23:51:04.937Z,80.63
2018-07-11T23:53:31.204Z,15.43
2018-07-11T23:55:57.537Z,14.03
2018-07-11T23:58:23.812Z,13.03
